createdAt,value
2022-10-20T00:02:19.570Z,7.14
2022-10-20T00:04:46.547Z,7.12
2022-10-20T00:07:13.056Z,7.08
2022-10-20T00:09:39.829Z,7.03
2022-10-20T00:12:06.404Z,7.01
2022-10-20T00:14:33.351Z,7.02
2022-10-20T00:17:00.977Z,7.03
2022-10-20T00:19:28.193Z,6.99
2022-10-20T00:21:54.742Z,6.94
2022-10-20T00:24:21.252Z,6.95
2022-10-20T00:26:47.999Z,6.91
2022-10-20T00:29:15.880Z,6.89
2022-10-20T00:31:43.548Z,6.87
2022-10-20T00:34:10.604Z,6.84
2022-10-20T00:36:38.757Z,6.80
2022-10-20T00:39:06.422Z,6.77
2022-10-20T00:41:33.707Z,6.72
2022-10-20T00:44:41.996Z,6.68
2022-10-20T00:47:17.310Z,6.68
2022-10-20T00:49:44.532Z,6.66
2022-10-20T00:52:11.743Z,6.64
2022-10-20T00:54:38.763Z,6.61
2022-10-20T00:57:05.957Z,6.56
2022-10-20T00:59:36.775Z,6.50
2022-10-20T01:02:06.523Z,6.48
2022-10-20T01:04:35.931Z,6.52
2022-10-20T01:07:03.361Z,6.44
2022-10-20T01:09:31.486Z,6.39
2022-10-20T01:12:07.265Z,6.36
2022-10-20T01:15:03.195Z,6.36
2022-10-20T01:17:46.032Z,6.33
2022-10-20T01:20:31.825Z,6.31
2022-10-20T01:23:26.372Z,6.21
2022-10-20T01:26:02.271Z,6.27
2022-10-20T01:28:42.072Z,6.28
2022-10-20T01:31:29.859Z,6.25
2022-10-20T01:34:09.294Z,6.28
2022-10-20T01:36:41.176Z,6.28
2022-10-20T01:39:16.101Z,6.28
2022-10-20T01:41:49.713Z,6.22
2022-10-20T01:44:20.521Z,6.23
2022-10-20T01:46:48.026Z,6.20
2022-10-20T01:49:15.763Z,6.20
2022-10-20T01:54:22.357Z,6.21
2022-10-20T01:57:17.442Z,6.15
2022-10-20T01:59:54.049Z,5.90
2022-10-20T02:02:33.597Z,5.85
2022-10-20T02:05:28.176Z,5.90
2022-10-20T02:08:07.007Z,5.94
2022-10-20T02:10:48.052Z,5.82
2022-10-20T02:13:16.955Z,5.69
2022-10-20T02:15:51.998Z,5.55
2022-10-20T02:18:25.072Z,5.48
2022-10-20T02:20:54.697Z,5.44
2022-10-20T02:23:21.757Z,5.40
2022-10-20T02:25:52.217Z,5.36
2022-10-20T02:28:20.025Z,5.44
2022-10-20T02:30:47.620Z,5.42
2022-10-20T02:33:16.499Z,5.37
2022-10-20T02:35:50.910Z,5.41
2022-10-20T02:38:17.650Z,5.45
2022-10-20T02:40:44.508Z,5.49
2022-10-20T02:43:11.244Z,5.53
2022-10-20T02:45:38.645Z,5.52
2022-10-20T02:48:08.716Z,5.56
2022-10-20T02:50:35.922Z,5.57
2022-10-20T02:53:03.752Z,5.57
2022-10-20T02:55:30.549Z,5.52
2022-10-20T02:57:57.586Z,5.48
2022-10-20T03:00:24.173Z,5.50
2022-10-20T03:02:51.861Z,5.46
2022-10-20T03:05:18.577Z,5.48
2022-10-20T03:07:45.174Z,5.51
2022-10-20T03:10:11.669Z,5.51
2022-10-20T03:12:38.406Z,5.49
2022-10-20T03:15:05.659Z,5.47
2022-10-20T03:17:32.297Z,5.41
2022-10-20T03:19:58.942Z,5.37
2022-10-20T03:22:25.607Z,5.35
2022-10-20T03:24:52.295Z,5.39
2022-10-20T03:27:18.941Z,5.33
2022-10-20T03:29:45.453Z,5.33
2022-10-20T03:32:12.048Z,5.29
2022-10-20T03:39:13.441Z,5.15
2022-10-20T03:41:39.941Z,5.17
2022-10-20T03:44:06.539Z,5.10
2022-10-20T03:46:33.129Z,5.01
2022-10-20T03:48:59.878Z,5.02
2022-10-20T03:51:26.526Z,4.98
2022-10-20T03:53:53.129Z,5.03
2022-10-20T03:56:21.028Z,4.93
2022-10-20T03:58:48.278Z,4.96
2022-10-20T04:01:16.843Z,4.89
2022-10-20T04:03:46.998Z,4.84
2022-10-20T04:06:14.719Z,4.80
2022-10-20T04:08:41.864Z,4.83
2022-10-20T04:11:08.933Z,4.79
2022-10-20T04:13:35.728Z,4.85
2022-10-20T04:16:02.329Z,4.82
2022-10-20T04:18:28.947Z,4.73
2022-10-20T04:20:55.609Z,4.60
2022-10-20T04:23:22.311Z,4.55
2022-10-20T04:25:49.113Z,4.41
2022-10-20T04:28:18.418Z,4.34
2022-10-20T04:30:46.570Z,4.33
2022-10-20T04:33:13.839Z,4.28
2022-10-20T04:35:40.929Z,4.35
2022-10-20T04:38:08.343Z,4.36
2022-10-20T04:40:34.982Z,4.35
2022-10-20T04:43:01.630Z,4.34
2022-10-20T04:45:30.045Z,4.26
2022-10-20T04:47:58.039Z,4.21
2022-10-20T04:50:24.745Z,4.19
2022-10-20T04:53:20.705Z,4.19
2022-10-20T04:55:54.133Z,4.28
2022-10-20T05:03:15.366Z,4.32
2022-10-20T05:05:41.997Z,4.35
2022-10-20T05:08:08.507Z,4.29
2022-10-20T05:10:36.683Z,4.31
2022-10-20T05:13:03.690Z,4.42
2022-10-20T05:15:30.222Z,4.52
2022-10-20T05:17:57.996Z,4.46
2022-10-20T05:20:24.565Z,4.45
2022-10-20T05:22:51.267Z,4.35
2022-10-20T05:25:35.591Z,4.29
2022-10-20T05:28:04.110Z,4.28
2022-10-20T05:30:31.063Z,4.25
2022-10-20T05:32:57.806Z,4.21
2022-10-20T05:35:24.545Z,4.22
2022-10-20T05:37:51.294Z,4.20
2022-10-20T05:40:18.124Z,4.15
2022-10-20T05:42:44.688Z,4.18
2022-10-20T05:45:11.306Z,4.21
2022-10-20T05:47:38.307Z,4.20
2022-10-20T05:50:05.471Z,4.23
2022-10-20T05:52:34.216Z,4.27
2022-10-20T05:55:02.059Z,4.25
2022-10-20T05:57:28.799Z,4.33
2022-10-20T05:59:55.549Z,4.42
2022-10-20T06:02:22.285Z,4.47
2022-10-20T06:04:48.973Z,4.57
2022-10-20T06:07:24.609Z,4.68
2022-10-20T06:09:54.911Z,4.77
2022-10-20T06:12:32.207Z,4.86
2022-10-20T06:15:01.607Z,4.98
2022-10-20T06:17:28.378Z,5.07
2022-10-20T06:19:54.994Z,5.19
2022-10-20T06:22:21.549Z,5.33
2022-10-20T06:24:48.258Z,5.43
2022-10-20T06:27:15.900Z,5.54
2022-10-20T06:29:44.805Z,5.62
2022-10-20T06:32:27.424Z,5.77
2022-10-20T06:39:52.086Z,6.07
2022-10-20T06:42:25.046Z,6.12
2022-10-20T06:44:54.760Z,6.16
2022-10-20T06:47:52.136Z,6.17
2022-10-20T06:50:44.359Z,6.37
2022-10-20T06:53:11.933Z,6.44
2022-10-20T06:55:40.239Z,6.50
2022-10-20T06:58:09.304Z,6.54
2022-10-20T07:00:36.279Z,6.50
2022-10-20T07:03:03.910Z,6.56
2022-10-20T07:06:38.261Z,6.55
2022-10-20T07:09:08.738Z,6.62
2022-10-20T07:11:36.022Z,6.62
2022-10-20T07:14:03.885Z,6.65
2022-10-20T07:16:33.753Z,6.61
2022-10-20T07:19:01.676Z,6.63
2022-10-20T07:21:34.962Z,6.69
2022-10-20T07:24:07.131Z,6.73
2022-10-20T07:26:37.613Z,6.81
2022-10-20T07:29:04.827Z,6.81
2022-10-20T07:31:37.770Z,6.84
2022-10-20T07:34:23.938Z,6.92
2022-10-20T07:36:53.418Z,6.94
2022-10-20T07:39:20.220Z,6.96
2022-10-20T07:41:47.635Z,6.99
2022-10-20T07:49:31.238Z,7.06
2022-10-20T07:51:50.847Z,7.13
2022-10-20T07:54:17.914Z,7.18
2022-10-20T07:56:45.826Z,7.21
2022-10-20T07:59:13.754Z,7.24
2022-10-20T08:01:41.569Z,7.24
2022-10-20T08:04:08.364Z,7.30
2022-10-20T08:11:11.142Z,7.42
2022-10-20T08:13:40.333Z,7.38
2022-10-20T08:16:15.480Z,7.43
2022-10-20T08:18:46.122Z,7.39
2022-10-20T08:21:16.889Z,7.37
2022-10-20T08:23:46.398Z,7.39
2022-10-20T08:26:18.058Z,7.44
2022-10-20T08:28:44.782Z,7.47
2022-10-20T08:31:11.437Z,7.46
2022-10-20T08:33:39.274Z,7.54
2022-10-20T08:36:09.285Z,7.63
2022-10-20T08:38:37.323Z,7.68
2022-10-20T08:41:12.440Z,7.67
2022-10-20T08:48:34.195Z,7.97
2022-10-20T08:51:00.860Z,8.12
2022-10-20T08:53:35.468Z,8.32
2022-10-20T08:56:02.145Z,8.47
2022-10-20T08:58:28.845Z,8.77
2022-10-20T09:00:58.514Z,9.15
2022-10-20T09:03:31.034Z,9.52
2022-10-20T09:06:09.560Z,9.98
2022-10-20T09:08:39.019Z,10.36
2022-10-20T09:15:37.929Z,10.89
2022-10-20T09:18:11.076Z,11.18
2022-10-20T09:20:58.201Z,11.40
2022-10-20T09:23:42.692Z,11.46
2022-10-20T09:26:24.834Z,11.42
2022-10-20T09:29:16.196Z,11.36
2022-10-20T09:31:49.472Z,11.27
2022-10-20T09:34:31.576Z,11.11
2022-10-20T09:37:12.710Z,10.71
2022-10-20T09:39:55.424Z,10.35
2022-10-20T09:42:29.288Z,10.16
2022-10-20T09:44:57.460Z,10.23
2022-10-20T09:47:26.668Z,10.19
2022-10-20T09:50:00.956Z,10.04
2022-10-20T09:52:40.188Z,10.06
2022-10-20T09:55:22.234Z,10.04
2022-10-20T09:57:49.362Z,9.95
2022-10-20T10:00:36.218Z,9.86
2022-10-20T10:03:21.866Z,9.73
2022-10-20T10:05:56.666Z,9.38
2022-10-20T10:08:40.255Z,9.53
2022-10-20T10:11:16.533Z,9.52
2022-10-20T10:13:46.104Z,9.54
2022-10-20T10:16:16.745Z,9.68
2022-10-20T10:18:49.220Z,9.64
2022-10-20T10:21:16.991Z,9.73
2022-10-20T10:23:59.599Z,9.79
2022-10-20T10:26:41.807Z,9.82
2022-10-20T10:29:28.208Z,9.93
2022-10-20T10:32:29.970Z,9.98
2022-10-20T10:35:18.217Z,10.10
2022-10-20T10:37:46.148Z,10.08
2022-10-20T10:40:18.764Z,10.13
2022-10-20T10:42:55.337Z,10.16
2022-10-20T10:45:34.392Z,10.22
2022-10-20T10:52:18.855Z,10.06
2022-10-20T10:54:51.632Z,9.99
2022-10-20T10:57:53.109Z,10.00
2022-10-20T11:00:39.144Z,9.94
2022-10-20T11:03:37.617Z,10.02
2022-10-20T11:06:36.676Z,9.99
2022-10-20T11:09:29.226Z,9.93
2022-10-20T11:16:20.482Z,9.88
2022-10-20T11:19:11.831Z,9.95
2022-10-20T11:22:03.470Z,10.01
2022-10-20T11:24:48.693Z,10.04
2022-10-20T11:28:06.444Z,10.02
2022-10-20T11:30:33.610Z,10.07
2022-10-20T11:33:12.493Z,10.13
2022-10-20T11:35:58.214Z,10.14
2022-10-20T11:38:40.814Z,10.19
2022-10-20T11:41:16.581Z,10.16
2022-10-20T11:43:50.005Z,10.19
2022-10-20T11:47:15.587Z,10.21
2022-10-20T11:49:43.442Z,10.25
2022-10-20T11:57:15.517Z,10.29
2022-10-20T12:00:06.683Z,10.32
2022-10-20T12:02:48.629Z,10.25
2022-10-20T12:05:27.710Z,10.16
2022-10-20T12:08:45.507Z,10.20
2022-10-20T12:11:17.405Z,10.30
2022-10-20T12:14:02.705Z,10.26
2022-10-20T12:16:51.663Z,10.28
2022-10-20T12:19:33.189Z,10.32
2022-10-20T12:23:17.228Z,10.35
2022-10-20T12:25:44.087Z,10.39
2022-10-20T12:33:17.572Z,10.21
2022-10-20T12:35:58.681Z,10.17
2022-10-20T12:38:26.931Z,10.24
2022-10-20T12:40:57.772Z,10.26
2022-10-20T12:43:46.061Z,10.29
2022-10-20T12:46:20.744Z,10.39
2022-10-20T12:48:56.086Z,10.44
2022-10-20T12:51:32.250Z,10.44
2022-10-20T12:54:25.002Z,10.42
2022-10-20T12:56:58.604Z,10.40
2022-10-20T12:59:28.354Z,10.33
2022-10-20T13:02:10.529Z,10.33
2022-10-20T13:04:59.188Z,10.31
2022-10-20T13:07:48.253Z,10.17
2022-10-20T13:10:31.091Z,10.17
2022-10-20T13:13:01.322Z,10.19
2022-10-20T13:15:36.449Z,10.18
2022-10-20T13:18:34.830Z,10.09
2022-10-20T13:21:32.114Z,10.05
2022-10-20T13:24:28.926Z,9.99
2022-10-20T13:27:01.087Z,9.95
2022-10-20T13:29:35.475Z,9.93
2022-10-20T13:32:25.102Z,9.95
2022-10-20T13:35:08.880Z,9.97
2022-10-20T13:37:54.004Z,9.98
2022-10-20T13:40:46.163Z,9.92
2022-10-20T13:43:44.242Z,9.96
2022-10-20T13:46:50.142Z,9.91
2022-10-20T13:49:29.321Z,9.90
2022-10-20T13:52:03.125Z,9.90
2022-10-20T13:55:25.466Z,9.91
2022-10-20T13:57:58.555Z,9.84
2022-10-20T14:00:31.345Z,9.80
2022-10-20T14:03:23.990Z,9.78
2022-10-20T14:05:53.905Z,9.68
2022-10-20T14:08:23.527Z,9.66
2022-10-20T14:10:59.781Z,9.59
2022-10-20T14:13:35.943Z,9.58
2022-10-20T14:16:16.407Z,9.54
2022-10-20T14:18:43.084Z,9.55
2022-10-20T14:21:18.594Z,9.53
2022-10-20T14:23:48.654Z,9.51
2022-10-20T14:26:19.651Z,9.42
2022-10-20T14:28:49.304Z,9.37
2022-10-20T14:31:20.210Z,9.35
2022-10-20T14:33:49.507Z,9.26
2022-10-20T14:36:23.683Z,9.21
2022-10-20T14:38:56.864Z,9.10
2022-10-20T14:41:25.611Z,9.06
2022-10-20T14:44:04.894Z,9.05
2022-10-20T14:46:40.450Z,8.99
2022-10-20T14:49:26.387Z,8.95
2022-10-20T14:51:59.278Z,8.86
2022-10-20T14:57:06.995Z,8.80
2022-10-20T14:59:58.640Z,8.77
2022-10-20T15:02:51.061Z,8.72
2022-10-20T15:05:39.309Z,8.67
2022-10-20T15:08:10.049Z,8.56
2022-10-20T15:10:38.532Z,8.50
2022-10-20T15:13:05.311Z,8.44
2022-10-20T15:15:38.563Z,8.39
2022-10-20T15:18:05.306Z,8.32
2022-10-20T15:20:35.738Z,8.23
2022-10-20T15:23:24.700Z,8.16
2022-10-20T15:26:00.000Z,8.05
2022-10-20T15:28:37.344Z,7.95
2022-10-20T15:31:15.777Z,7.89
2022-10-20T15:33:43.102Z,7.85
2022-10-20T15:36:12.786Z,7.76
2022-10-20T15:38:39.455Z,7.68
2022-10-20T15:41:06.289Z,7.64
2022-10-20T15:43:33.042Z,7.56
2022-10-20T15:45:59.889Z,7.50
2022-10-20T15:48:26.465Z,7.44
2022-10-20T15:50:54.293Z,7.33
2022-10-20T15:53:20.987Z,7.27
2022-10-20T15:55:47.579Z,7.19
2022-10-20T15:58:14.313Z,7.09
2022-10-20T16:00:41.171Z,7.05
2022-10-20T16:03:16.411Z,7.00
2022-10-20T16:05:44.167Z,7.01
2022-10-20T16:08:10.967Z,7.00
2022-10-20T16:10:39.289Z,6.93
2022-10-20T16:13:05.901Z,6.83
2022-10-20T16:15:32.489Z,6.73
2022-10-20T16:17:59.325Z,6.60
2022-10-20T16:20:26.067Z,6.60
2022-10-20T16:22:52.797Z,6.55
2022-10-20T16:25:19.412Z,6.42
2022-10-20T16:27:46.056Z,6.28
2022-10-20T16:30:12.730Z,6.15
2022-10-20T16:32:39.730Z,6.01
2022-10-20T16:35:07.482Z,5.89
2022-10-20T16:37:34.483Z,5.85
2022-10-20T16:40:01.832Z,5.75
2022-10-20T16:42:29.772Z,5.67
2022-10-20T16:44:57.026Z,5.56
2022-10-20T16:47:26.876Z,5.41
2022-10-20T16:49:53.632Z,5.39
2022-10-20T16:52:20.384Z,5.36
2022-10-20T16:54:47.151Z,5.28
2022-10-20T16:57:13.983Z,5.18
2022-10-20T16:59:42.320Z,5.12
2022-10-20T17:02:11.886Z,5.08
2022-10-20T17:04:39.086Z,5.03
2022-10-20T17:07:08.117Z,4.96
2022-10-20T17:09:35.030Z,4.93
2022-10-20T17:12:01.765Z,4.98
2022-10-20T17:14:28.621Z,5.11
2022-10-20T17:16:55.337Z,5.22
2022-10-20T17:19:22.034Z,5.27
2022-10-20T17:21:51.266Z,5.23
2022-10-20T17:24:20.459Z,5.26
2022-10-20T17:26:47.164Z,5.19
2022-10-20T17:29:14.185Z,5.23
2022-10-20T17:31:40.994Z,5.26
2022-10-20T17:34:08.588Z,5.26
2022-10-20T17:36:35.374Z,5.21
2022-10-20T17:39:10.302Z,5.03
2022-10-20T17:41:37.006Z,4.84
2022-10-20T17:44:05.695Z,4.77
2022-10-20T17:46:33.064Z,4.84
2022-10-20T17:49:01.103Z,4.87
2022-10-20T17:51:31.784Z,4.87
2022-10-20T17:54:02.609Z,4.86
2022-10-20T17:56:35.398Z,4.72
2022-10-20T17:59:03.683Z,4.55
2022-10-20T18:01:38.514Z,4.43
2022-10-20T18:04:16.524Z,4.35
2022-10-20T18:06:45.081Z,4.25
2022-10-20T18:09:14.900Z,4.17
2022-10-20T18:11:49.153Z,4.11
2022-10-20T18:14:16.673Z,4.03
2022-10-20T18:16:43.826Z,3.97
2022-10-20T18:19:16.507Z,3.94
2022-10-20T18:21:43.864Z,3.87
2022-10-20T18:24:12.760Z,3.78
2022-10-20T18:26:39.526Z,3.73
2022-10-20T18:29:08.365Z,3.70
2022-10-20T18:31:36.834Z,3.73
2022-10-20T18:34:07.066Z,3.69
2022-10-20T18:36:39.120Z,3.68
2022-10-20T18:39:09.741Z,3.66
2022-10-20T18:41:39.618Z,3.66
2022-10-20T18:44:11.758Z,3.61
2022-10-20T18:46:39.201Z,3.69
2022-10-20T18:49:07.786Z,3.70
2022-10-20T18:51:35.803Z,3.61
2022-10-20T18:54:04.628Z,3.53
2022-10-20T18:56:31.638Z,3.46
2022-10-20T18:59:01.233Z,3.43
2022-10-20T19:01:30.993Z,3.38
2022-10-20T19:03:58.922Z,3.33
2022-10-20T19:06:28.739Z,3.29
2022-10-20T19:09:01.766Z,3.30
2022-10-20T19:11:31.581Z,3.32
2022-10-20T19:13:59.312Z,3.41
2022-10-20T19:16:28.965Z,3.44
2022-10-20T19:18:57.914Z,3.47
2022-10-20T19:21:25.989Z,3.57
2022-10-20T19:23:57.465Z,3.55
2022-10-20T19:26:57.533Z,3.45
2022-10-20T19:29:35.322Z,3.29
2022-10-20T19:32:04.624Z,3.15
2022-10-20T19:34:34.689Z,3.02
2022-10-20T19:37:02.769Z,2.93
2022-10-20T19:39:36.410Z,2.91
2022-10-20T19:42:04.056Z,2.86
2022-10-20T19:44:31.283Z,2.81
2022-10-20T19:46:58.158Z,2.74
2022-10-20T19:49:26.206Z,2.72
2022-10-20T19:51:53.352Z,2.74
2022-10-20T19:54:20.196Z,2.73
2022-10-20T19:56:47.041Z,2.82
2022-10-20T19:59:14.120Z,2.99
2022-10-20T20:01:41.141Z,3.11
2022-10-20T20:04:07.999Z,3.15
2022-10-20T20:06:35.139Z,3.10
2022-10-20T20:09:05.856Z,3.00
2022-10-20T20:11:34.356Z,3.00
2022-10-20T20:14:11.444Z,3.04
2022-10-20T20:16:39.543Z,2.99
2022-10-20T20:19:06.459Z,3.01
2022-10-20T20:21:33.824Z,2.93
2022-10-20T20:24:03.242Z,2.80
2022-10-20T20:26:32.731Z,2.74
2022-10-20T20:29:00.145Z,2.67
2022-10-20T20:31:27.868Z,2.54
2022-10-20T20:33:57.004Z,2.48
2022-10-20T20:36:26.181Z,2.41
2022-10-20T20:38:58.573Z,2.30
2022-10-20T20:41:29.530Z,2.21
2022-10-20T20:43:56.306Z,2.13
2022-10-20T20:46:28.237Z,2.10
2022-10-20T20:48:55.321Z,2.04
2022-10-20T20:51:22.476Z,2.05
2022-10-20T20:53:49.250Z,2.02
2022-10-20T20:56:20.501Z,2.03
2022-10-20T20:58:50.381Z,2.08
2022-10-20T21:01:21.150Z,1.97
2022-10-20T21:03:53.065Z,1.83
2022-10-20T21:06:22.966Z,1.87
2022-10-20T21:08:55.892Z,1.90
2022-10-20T21:11:25.550Z,1.95
2022-10-20T21:13:54.816Z,1.96
2022-10-20T21:16:25.245Z,1.89
2022-10-20T21:18:54.739Z,1.83
2022-10-20T21:21:26.597Z,1.81
2022-10-20T21:23:55.084Z,1.76
2022-10-20T21:26:22.761Z,1.66
2022-10-20T21:28:49.888Z,1.60
2022-10-20T21:31:19.077Z,1.56
2022-10-20T21:33:49.887Z,1.57
2022-10-20T21:36:18.715Z,1.58
2022-10-20T21:38:46.798Z,1.57
2022-10-20T21:41:18.694Z,1.57
2022-10-20T21:43:48.113Z,1.59
2022-10-20T21:46:22.582Z,1.77
2022-10-20T21:48:51.398Z,1.78
2022-10-20T21:51:19.738Z,1.70
2022-10-20T21:53:47.213Z,1.64
2022-10-20T21:56:15.794Z,1.56
2022-10-20T21:58:42.553Z,1.49
2022-10-20T22:01:17.654Z,1.50
2022-10-20T22:03:45.851Z,1.46
2022-10-20T22:06:15.463Z,1.52
2022-10-20T22:08:45.256Z,1.61
2022-10-20T22:11:16.788Z,1.60
2022-10-20T22:13:43.505Z,1.67
2022-10-20T22:16:14.307Z,1.70
2022-10-20T22:18:41.565Z,1.79
2022-10-20T22:21:17.489Z,1.86
2022-10-20T22:23:44.879Z,1.89
2022-10-20T22:26:11.997Z,1.75
2022-10-20T22:28:39.512Z,1.71
2022-10-20T22:31:06.948Z,1.74
2022-10-20T22:33:34.430Z,1.72
2022-10-20T22:36:01.662Z,1.82
2022-10-20T22:38:28.545Z,1.91
2022-10-20T22:40:59.984Z,1.97
2022-10-20T22:43:28.439Z,1.96
2022-10-20T22:45:55.340Z,1.85
2022-10-20T22:48:22.447Z,1.76
2022-10-20T22:50:49.795Z,1.68
2022-10-20T22:53:16.790Z,1.64
2022-10-20T22:55:43.576Z,1.70
2022-10-20T22:58:10.253Z,1.73
2022-10-20T23:00:41.462Z,1.63
2022-10-20T23:03:08.829Z,1.53
2022-10-20T23:05:36.235Z,1.45
2022-10-20T23:08:02.908Z,1.56
2022-10-20T23:10:30.298Z,1.69
2022-10-20T23:12:56.825Z,1.72
2022-10-20T23:15:23.413Z,1.55
2022-10-20T23:17:50.098Z,1.45
2022-10-20T23:20:16.639Z,1.34
2022-10-20T23:22:43.282Z,1.28
2022-10-20T23:25:09.796Z,1.31
2022-10-20T23:27:36.955Z,1.28
2022-10-20T23:30:04.730Z,1.19
2022-10-20T23:32:31.516Z,1.15
2022-10-20T23:34:58.137Z,1.08
2022-10-20T23:37:24.841Z,1.02
2022-10-20T23:39:51.527Z,0.88
2022-10-20T23:42:18.056Z,0.84
2022-10-20T23:44:44.816Z,0.83
2022-10-20T23:47:11.402Z,0.88
2022-10-20T23:49:38.462Z,0.84
2022-10-20T23:52:05.101Z,0.84
2022-10-20T23:54:31.816Z,0.85
2022-10-20T23:56:58.515Z,0.84
2022-10-20T23:59:25.207Z,0.81
